sensor_id;sensor_type;location;lat;lon;timestamp;pressure;altitude;pressure_sealevel;temperature;humidity
64644;BME280;51056;50.330;7.914;2022-09-23T00:01:55;101043.91;;;8.15;75.19
64644;BME280;51056;50.330;7.914;2022-09-23T00:05:00;101039.63;;;8.13;75.11
64644;BME280;51056;50.330;7.914;2022-09-23T00:08:04;101044.66;;;8.19;74.93
64644;BME280;51056;50.330;7.914;2022-09-23T00:11:08;101037.09;;;8.11;74.89
64644;BME280;51056;50.330;7.914;2022-09-23T00:14:12;101037.00;;;8.14;75.31
64644;BME280;51056;50.330;7.914;2022-09-23T00:17:15;101041.06;;;8.23;74.48
64644;BME280;51056;50.330;7.914;2022-09-23T00:20:19;101046.72;;;8.09;74.79
64644;BME280;51056;50.330;7.914;2022-09-23T00:23:22;101033.78;;;8.06;74.84
64644;BME280;51056;50.330;7.914;2022-09-23T00:26:25;101043.94;;;7.89;75.59
64644;BME280;51056;50.330;7.914;2022-09-23T00:29:29;101041.78;;;8.02;75.49
64644;BME280;51056;50.330;7.914;2022-09-23T00:32:33;101033.25;;;7.97;75.38
64644;BME280;51056;50.330;7.914;2022-09-23T00:35:36;101040.75;;;8.06;75.13
64644;BME280;51056;50.330;7.914;2022-09-23T00:38:40;101035.81;;;7.98;75.50
64644;BME280;51056;50.330;7.914;2022-09-23T00:41:52;101040.00;;;8.02;75.28
64644;BME280;51056;50.330;7.914;2022-09-23T00:44:57;101029.69;;;7.99;75.45
64644;BME280;51056;50.330;7.914;2022-09-23T00:48:00;101032.59;;;7.90;75.97
64644;BME280;51056;50.330;7.914;2022-09-23T00:51:04;101028.31;;;7.89;75.72
64644;BME280;51056;50.330;7.914;2022-09-23T00:54:09;101020.91;;;7.77;76.31
64644;BME280;51056;50.330;7.914;2022-09-23T00:57:13;101023.28;;;7.83;75.50
64644;BME280;51056;50.330;7.914;2022-09-23T01:00:18;101031.97;;;7.83;75.69
64644;BME280;51056;50.330;7.914;2022-09-23T01:03:21;101017.38;;;7.78;75.25
64644;BME280;51056;50.330;7.914;2022-09-23T01:06:27;101012.69;;;7.89;75.01
64644;BME280;51056;50.330;7.914;2022-09-23T01:09:31;101014.00;;;7.76;75.26
64644;BME280;51056;50.330;7.914;2022-09-23T01:25:32;101009.47;;;7.54;76.23
64644;BME280;51056;50.330;7.914;2022-09-23T01:31:55;101010.03;;;7.64;75.29
64644;BME280;51056;50.330;7.914;2022-09-23T01:38:16;101004.47;;;7.48;75.41
64644;BME280;51056;50.330;7.914;2022-09-23T01:48:00;100993.41;;;7.41;75.11
64644;BME280;51056;50.330;7.914;2022-09-23T01:54:13;100980.53;;;7.37;75.36
64644;BME280;51056;50.330;7.914;2022-09-23T01:57:20;100986.69;;;7.34;75.16
64644;BME280;51056;50.330;7.914;2022-09-23T02:00:26;100981.44;;;7.36;75.01
64644;BME280;51056;50.330;7.914;2022-09-23T02:03:33;100980.22;;;7.19;75.23
64644;BME280;51056;50.330;7.914;2022-09-23T02:06:45;100982.63;;;7.26;75.06
64644;BME280;51056;50.330;7.914;2022-09-23T02:09:58;100978.66;;;7.14;75.53
64644;BME280;51056;50.330;7.914;2022-09-23T02:13:12;100974.94;;;7.21;75.54
64644;BME280;51056;50.330;7.914;2022-09-23T02:19:31;100975.28;;;7.10;75.60
64644;BME280;51056;50.330;7.914;2022-09-23T02:22:55;100977.84;;;7.12;75.72
64644;BME280;51056;50.330;7.914;2022-09-23T02:26:07;100976.56;;;6.97;76.11
64644;BME280;51056;50.330;7.914;2022-09-23T02:32:27;100969.50;;;7.02;75.91
64644;BME280;51056;50.330;7.914;2022-09-23T02:38:48;100967.94;;;6.95;75.68
64644;BME280;51056;50.330;7.914;2022-09-23T02:42:01;100961.59;;;7.05;74.94
64644;BME280;51056;50.330;7.914;2022-09-23T02:45:06;100963.50;;;6.98;75.24
64644;BME280;51056;50.330;7.914;2022-09-23T02:48:16;100970.78;;;6.87;75.57
64644;BME280;51056;50.330;7.914;2022-09-23T02:51:20;100968.94;;;6.91;75.07
64644;BME280;51056;50.330;7.914;2022-09-23T02:54:27;100964.75;;;6.87;75.15
64644;BME280;51056;50.330;7.914;2022-09-23T02:57:30;100966.84;;;7.04;74.56
64644;BME280;51056;50.330;7.914;2022-09-23T03:07:01;100970.22;;;6.78;75.47
64644;BME280;51056;50.330;7.914;2022-09-23T03:13:23;100966.63;;;6.82;74.89
64644;BME280;51056;50.330;7.914;2022-09-23T03:19:36;100957.91;;;6.83;74.65
64644;BME280;51056;50.330;7.914;2022-09-23T03:22:45;100951.66;;;6.60;75.17
64644;BME280;51056;50.330;7.914;2022-09-23T03:25:50;100956.31;;;6.79;75.03
64644;BME280;51056;50.330;7.914;2022-09-23T03:28:55;100950.78;;;6.61;75.30
64644;BME280;51056;50.330;7.914;2022-09-23T03:32:01;100944.41;;;6.71;74.66
64644;BME280;51056;50.330;7.914;2022-09-23T03:35:04;100954.97;;;6.65;74.84
64644;BME280;51056;50.330;7.914;2022-09-23T03:38:10;100949.28;;;6.52;75.17
64644;BME280;51056;50.330;7.914;2022-09-23T03:41:22;100951.66;;;6.60;74.81
64644;BME280;51056;50.330;7.914;2022-09-23T03:44:32;100943.59;;;6.69;74.43
64644;BME280;51056;50.330;7.914;2022-09-23T03:47:41;100930.69;;;6.66;74.93
64644;BME280;51056;50.330;7.914;2022-09-23T03:50:45;100926.94;;;6.77;73.95
64644;BME280;51056;50.330;7.914;2022-09-23T03:53:49;100932.09;;;6.48;74.98
64644;BME280;51056;50.330;7.914;2022-09-23T03:56:52;100930.28;;;6.50;75.40
64644;BME280;51056;50.330;7.914;2022-09-23T03:59:58;100929.00;;;6.65;75.02
64644;BME280;51056;50.330;7.914;2022-09-23T04:03:02;100921.91;;;6.70;74.68
64644;BME280;51056;50.330;7.914;2022-09-23T04:06:05;100917.25;;;6.52;75.36
64644;BME280;51056;50.330;7.914;2022-09-23T04:09:08;100920.19;;;6.69;74.74
64644;BME280;51056;50.330;7.914;2022-09-23T04:12:12;100923.28;;;6.54;75.00
64644;BME280;51056;50.330;7.914;2022-09-23T04:15:16;100913.72;;;6.83;74.54
64644;BME280;51056;50.330;7.914;2022-09-23T04:18:22;100908.13;;;6.96;74.56
64644;BME280;51056;50.330;7.914;2022-09-23T04:21:48;100914.63;;;6.82;75.05
64644;BME280;51056;50.330;7.914;2022-09-23T04:43:55;100914.47;;;6.58;80.81
64644;BME280;51056;50.330;7.914;2022-09-23T04:46:59;100917.56;;;6.71;80.40
64644;BME280;51056;50.330;7.914;2022-09-23T04:50:04;100908.38;;;6.59;79.44
64644;BME280;51056;50.330;7.914;2022-09-23T04:53:07;100915.09;;;6.66;79.79
64644;BME280;51056;50.330;7.914;2022-09-23T04:56:29;100917.13;;;6.57;79.75
64644;BME280;51056;50.330;7.914;2022-09-23T04:59:35;100914.03;;;6.44;79.08
64644;BME280;51056;50.330;7.914;2022-09-23T05:02:45;100912.88;;;6.54;79.00
64644;BME280;51056;50.330;7.914;2022-09-23T05:05:50;100919.03;;;6.50;79.06
64644;BME280;51056;50.330;7.914;2022-09-23T05:08:53;100923.53;;;6.74;77.76
64644;BME280;51056;50.330;7.914;2022-09-23T05:11:57;100919.13;;;6.47;78.31
64644;BME280;51056;50.330;7.914;2022-09-23T05:15:02;100921.63;;;6.50;78.52
64644;BME280;51056;50.330;7.914;2022-09-23T05:18:09;100922.28;;;6.58;77.97
64644;BME280;51056;50.330;7.914;2022-09-23T05:21:18;100925.66;;;6.60;78.16
64644;BME280;51056;50.330;7.914;2022-09-23T05:24:23;100922.53;;;6.49;78.17
64644;BME280;51056;50.330;7.914;2022-09-23T05:27:27;100921.94;;;6.69;77.98
64644;BME280;51056;50.330;7.914;2022-09-23T05:30:30;100915.66;;;6.48;79.11
64644;BME280;51056;50.330;7.914;2022-09-23T05:33:34;100914.41;;;6.61;78.82
64644;BME280;51056;50.330;7.914;2022-09-23T05:36:37;100918.59;;;6.65;78.12
64644;BME280;51056;50.330;7.914;2022-09-23T05:39:41;100916.34;;;6.53;78.65
64644;BME280;51056;50.330;7.914;2022-09-23T05:42:46;100916.06;;;6.64;78.59
64644;BME280;51056;50.330;7.914;2022-09-23T05:45:50;100925.06;;;6.52;79.18
64644;BME280;51056;50.330;7.914;2022-09-23T05:48:54;100920.38;;;6.63;78.97
64644;BME280;51056;50.330;7.914;2022-09-23T05:51:57;100925.56;;;6.63;78.45
64644;BME280;51056;50.330;7.914;2022-09-23T05:55:01;100918.28;;;6.46;78.68
64644;BME280;51056;50.330;7.914;2022-09-23T05:58:05;100915.06;;;6.68;78.88
64644;BME280;51056;50.330;7.914;2022-09-23T06:01:09;100917.69;;;6.37;79.69
64644;BME280;51056;50.330;7.914;2022-09-23T06:04:15;100915.34;;;6.57;79.37
64644;BME280;51056;50.330;7.914;2022-09-23T06:07:20;100914.56;;;6.55;78.92
64644;BME280;51056;50.330;7.914;2022-09-23T06:10:23;100923.53;;;6.45;80.14
64644;BME280;51056;50.330;7.914;2022-09-23T06:13:26;100917.34;;;6.49;80.26
64644;BME280;51056;50.330;7.914;2022-09-23T06:16:32;100916.41;;;6.51;80.08
64644;BME280;51056;50.330;7.914;2022-09-23T06:19:36;100915.75;;;6.45;80.14
64644;BME280;51056;50.330;7.914;2022-09-23T06:22:40;100908.28;;;6.62;79.95
64644;BME280;51056;50.330;7.914;2022-09-23T06:25:43;100907.72;;;6.52;79.45
64644;BME280;51056;50.330;7.914;2022-09-23T06:28:47;100905.88;;;6.56;79.38
64644;BME280;51056;50.330;7.914;2022-09-23T06:31:50;100913.75;;;6.53;79.29
64644;BME280;51056;50.330;7.914;2022-09-23T06:34:54;100912.16;;;6.49;79.84
64644;BME280;51056;50.330;7.914;2022-09-23T06:38:01;100908.44;;;6.58;79.58
64644;BME280;51056;50.330;7.914;2022-09-23T06:41:05;100907.13;;;6.72;78.58
64644;BME280;51056;50.330;7.914;2022-09-23T06:44:08;100899.19;;;6.47;80.56
64644;BME280;51056;50.330;7.914;2022-09-23T06:47:15;100894.28;;;6.68;79.92
64644;BME280;51056;50.330;7.914;2022-09-23T06:50:18;100898.09;;;6.56;79.34
64644;BME280;51056;50.330;7.914;2022-09-23T06:53:22;100894.88;;;6.76;78.48
64644;BME280;51056;50.330;7.914;2022-09-23T06:56:25;100898.47;;;7.00;77.70
64644;BME280;51056;50.330;7.914;2022-09-23T06:59:28;100891.25;;;7.08;76.45
64644;BME280;51056;50.330;7.914;2022-09-23T07:02:32;100902.75;;;7.01;76.30
64644;BME280;51056;50.330;7.914;2022-09-23T07:05:35;100903.19;;;6.59;79.12
64644;BME280;51056;50.330;7.914;2022-09-23T07:08:44;100900.63;;;6.86;77.83
64644;BME280;51056;50.330;7.914;2022-09-23T07:11:49;100904.91;;;6.88;77.78
64644;BME280;51056;50.330;7.914;2022-09-23T07:14:54;100903.25;;;6.86;78.03
64644;BME280;51056;50.330;7.914;2022-09-23T07:18:00;100905.84;;;6.86;78.72
64644;BME280;51056;50.330;7.914;2022-09-23T07:21:13;100912.38;;;6.99;78.53
64644;BME280;51056;50.330;7.914;2022-09-23T07:24:19;100905.34;;;7.03;78.45
64644;BME280;51056;50.330;7.914;2022-09-23T07:27:26;100911.47;;;7.00;79.50
64644;BME280;51056;50.330;7.914;2022-09-23T07:30:30;100908.78;;;7.03;79.42
64644;BME280;51056;50.330;7.914;2022-09-23T07:33:34;100902.25;;;7.18;78.82
64644;BME280;51056;50.330;7.914;2022-09-23T07:36:38;100904.41;;;7.32;78.77
64644;BME280;51056;50.330;7.914;2022-09-23T07:39:43;100905.78;;;7.42;79.66
64644;BME280;51056;50.330;7.914;2022-09-23T07:42:45;100902.88;;;7.51;78.47
64644;BME280;51056;50.330;7.914;2022-09-23T07:45:49;100909.00;;;7.50;79.51
64644;BME280;51056;50.330;7.914;2022-09-23T07:48:53;100905.50;;;7.51;79.42
64644;BME280;51056;50.330;7.914;2022-09-23T07:51:57;100908.03;;;7.78;79.47
64644;BME280;51056;50.330;7.914;2022-09-23T07:55:00;100898.91;;;7.91;79.33
64644;BME280;51056;50.330;7.914;2022-09-23T07:58:04;100904.00;;;7.94;80.47
64644;BME280;51056;50.330;7.914;2022-09-23T08:01:09;100902.19;;;7.96;81.30
64644;BME280;51056;50.330;7.914;2022-09-23T08:04:14;100889.59;;;8.09;80.94
64644;BME280;51056;50.330;7.914;2022-09-23T08:07:19;100893.34;;;8.25;81.09
64644;BME280;51056;50.330;7.914;2022-09-23T08:10:24;100897.69;;;8.50;80.67
64644;BME280;51056;50.330;7.914;2022-09-23T08:13:27;100882.19;;;8.69;80.12
64644;BME280;51056;50.330;7.914;2022-09-23T08:16:31;100887.03;;;8.78;80.52
64644;BME280;51056;50.330;7.914;2022-09-23T08:19:34;100881.09;;;8.96;79.76
64644;BME280;51056;50.330;7.914;2022-09-23T08:22:37;100884.38;;;9.01;80.27
64644;BME280;51056;50.330;7.914;2022-09-23T08:25:41;100888.50;;;9.07;80.95
64644;BME280;51056;50.330;7.914;2022-09-23T08:28:45;100888.38;;;9.10;80.18
64644;BME280;51056;50.330;7.914;2022-09-23T08:31:50;100881.75;;;9.23;80.20
64644;BME280;51056;50.330;7.914;2022-09-23T08:34:53;100890.28;;;9.27;80.11
64644;BME280;51056;50.330;7.914;2022-09-23T08:37:56;100878.38;;;9.42;80.04
64644;BME280;51056;50.330;7.914;2022-09-23T08:50:47;100865.81;;;10.30;80.67
64644;BME280;51056;50.330;7.914;2022-09-23T08:53:57;100867.81;;;10.44;78.82
64644;BME280;51056;50.330;7.914;2022-09-23T08:57:01;100867.19;;;10.39;75.83
64644;BME280;51056;50.330;7.914;2022-09-23T09:00:11;100859.13;;;10.43;75.92
64644;BME280;51056;50.330;7.914;2022-09-23T09:03:23;100852.00;;;10.47;75.01
64644;BME280;51056;50.330;7.914;2022-09-23T09:06:29;100853.44;;;10.71;74.80
64644;BME280;51056;50.330;7.914;2022-09-23T09:12:40;100852.56;;;10.90;73.84
64644;BME280;51056;50.330;7.914;2022-09-23T09:15:55;100845.75;;;11.05;72.96
64644;BME280;51056;50.330;7.914;2022-09-23T09:19:11;100843.22;;;11.21;73.01
64644;BME280;51056;50.330;7.914;2022-09-23T09:22:21;100837.34;;;11.15;71.86
64644;BME280;51056;50.330;7.914;2022-09-23T09:25:42;100837.50;;;11.12;72.21
64644;BME280;51056;50.330;7.914;2022-09-23T09:29:08;100838.03;;;11.19;72.38
64644;BME280;51056;50.330;7.914;2022-09-23T09:35:28;100833.09;;;11.48;72.99
64644;BME280;51056;50.330;7.914;2022-09-23T09:38:38;100827.72;;;11.51;72.27
64644;BME280;51056;50.330;7.914;2022-09-23T09:41:51;100817.63;;;11.60;71.35
64644;BME280;51056;50.330;7.914;2022-09-23T09:45:02;100817.75;;;11.75;71.32
64644;BME280;51056;50.330;7.914;2022-09-23T09:48:15;100809.19;;;11.89;70.82
64644;BME280;51056;50.330;7.914;2022-09-23T09:51:23;100802.53;;;11.99;70.30
64644;BME280;51056;50.330;7.914;2022-09-23T09:54:29;100802.19;;;12.05;70.20
64644;BME280;51056;50.330;7.914;2022-09-23T09:57:37;100798.47;;;12.09;69.57
64644;BME280;51056;50.330;7.914;2022-09-23T10:00:43;100795.88;;;12.25;70.94
64644;BME280;51056;50.330;7.914;2022-09-23T10:03:48;100794.19;;;12.40;70.09
64644;BME280;51056;50.330;7.914;2022-09-23T10:07:05;100792.56;;;12.53;68.46
64644;BME280;51056;50.330;7.914;2022-09-23T10:10:19;100783.84;;;12.68;67.97
64644;BME280;51056;50.330;7.914;2022-09-23T10:13:24;100771.13;;;12.76;68.31
64644;BME280;51056;50.330;7.914;2022-09-23T10:16:29;100766.63;;;12.78;67.76
64644;BME280;51056;50.330;7.914;2022-09-23T10:19:34;100761.69;;;12.88;68.55
64644;BME280;51056;50.330;7.914;2022-09-23T10:22:40;100769.13;;;12.96;67.25
64644;BME280;51056;50.330;7.914;2022-09-23T10:25:53;100767.16;;;12.99;67.65
64644;BME280;51056;50.330;7.914;2022-09-23T10:28:57;100761.47;;;13.07;67.47
64644;BME280;51056;50.330;7.914;2022-09-23T10:32:22;100753.75;;;13.04;66.53
64644;BME280;51056;50.330;7.914;2022-09-23T10:35:27;100751.38;;;13.15;67.76
64644;BME280;51056;50.330;7.914;2022-09-23T10:38:35;100749.34;;;13.35;67.58
64644;BME280;51056;50.330;7.914;2022-09-23T10:41:40;100743.19;;;13.50;67.99
64644;BME280;51056;50.330;7.914;2022-09-23T10:48:52;100743.28;;;13.63;66.49
64644;BME280;51056;50.330;7.914;2022-09-23T10:58:19;100722.59;;;14.27;65.12
64644;BME280;51056;50.330;7.914;2022-09-23T11:08:15;100712.97;;;14.40;64.93
64644;BME280;51056;50.330;7.914;2022-09-23T11:11:31;100708.97;;;14.47;64.49
64644;BME280;51056;50.330;7.914;2022-09-23T11:14:43;100702.44;;;14.67;64.26
64644;BME280;51056;50.330;7.914;2022-09-23T11:24:16;100692.66;;;14.82;61.54
64644;BME280;51056;50.330;7.914;2022-09-23T11:27:34;100699.41;;;14.86;61.67
64644;BME280;51056;50.330;7.914;2022-09-23T11:30:54;100690.25;;;14.92;60.66
64644;BME280;51056;50.330;7.914;2022-09-23T11:37:18;100682.69;;;15.00;61.89
64644;BME280;51056;50.330;7.914;2022-09-23T11:40:23;100688.25;;;15.21;61.52
64644;BME280;51056;50.330;7.914;2022-09-23T11:43:33;100679.09;;;15.39;59.84
64644;BME280;51056;50.330;7.914;2022-09-23T11:46:40;100671.16;;;15.52;60.37
64644;BME280;51056;50.330;7.914;2022-09-23T11:49:58;100665.50;;;15.45;59.88
64644;BME280;51056;50.330;7.914;2022-09-23T11:56:31;100653.81;;;15.86;58.38
64644;BME280;51056;50.330;7.914;2022-09-23T11:59:44;100652.28;;;15.95;57.38
64644;BME280;51056;50.330;7.914;2022-09-23T12:06:05;100640.47;;;16.00;56.88
64644;BME280;51056;50.330;7.914;2022-09-23T12:09:21;100632.41;;;16.26;57.59
64644;BME280;51056;50.330;7.914;2022-09-23T12:21:59;100626.16;;;17.09;50.23
64644;BME280;51056;50.330;7.914;2022-09-23T12:28:32;100615.94;;;17.27;47.43
64644;BME280;51056;50.330;7.914;2022-09-23T12:31:38;100616.03;;;17.48;47.16
64644;BME280;51056;50.330;7.914;2022-09-23T12:34:45;100614.69;;;18.19;41.61
64644;BME280;51056;50.330;7.914;2022-09-23T12:37:54;100603.47;;;19.70;40.26
64644;BME280;51056;50.330;7.914;2022-09-23T12:40:58;100600.00;;;22.23;36.13
64644;BME280;51056;50.330;7.914;2022-09-23T12:50:46;100588.56;;;27.86;26.96
64644;BME280;51056;50.330;7.914;2022-09-23T12:53:50;100581.47;;;30.73;25.01
64644;BME280;51056;50.330;7.914;2022-09-23T12:56:56;100573.31;;;31.00;22.55
64644;BME280;51056;50.330;7.914;2022-09-23T13:03:14;100558.41;;;32.56;20.03
64644;BME280;51056;50.330;7.914;2022-09-23T13:06:52;100556.81;;;32.67;19.95
64644;BME280;51056;50.330;7.914;2022-09-23T13:10:14;100556.25;;;31.89;19.65
64644;BME280;51056;50.330;7.914;2022-09-23T13:16:41;100537.06;;;33.63;18.22
64644;BME280;51056;50.330;7.914;2022-09-23T13:19:48;100538.47;;;30.85;21.52
64644;BME280;51056;50.330;7.914;2022-09-23T13:23:04;100528.59;;;32.12;20.85
64644;BME280;51056;50.330;7.914;2022-09-23T13:26:09;100527.22;;;32.03;20.20
64644;BME280;51056;50.330;7.914;2022-09-23T13:29:19;100532.44;;;27.04;26.14
64644;BME280;51056;50.330;7.914;2022-09-23T13:32:30;100530.94;;;25.58;29.55
64644;BME280;51056;50.330;7.914;2022-09-23T13:35:49;100530.34;;;24.69;30.84
64644;BME280;51056;50.330;7.914;2022-09-23T13:39:11;100523.00;;;23.40;32.89
64644;BME280;51056;50.330;7.914;2022-09-23T13:42:33;100520.22;;;22.73;33.84
64644;BME280;51056;50.330;7.914;2022-09-23T13:45:38;100517.72;;;22.98;32.04
64644;BME280;51056;50.330;7.914;2022-09-23T13:48:46;100516.56;;;24.08;30.39
64644;BME280;51056;50.330;7.914;2022-09-23T13:51:51;100516.94;;;24.77;30.32
64644;BME280;51056;50.330;7.914;2022-09-23T13:54:58;100524.09;;;24.13;31.68
64644;BME280;51056;50.330;7.914;2022-09-23T13:58:10;100522.53;;;24.51;29.93
64644;BME280;51056;50.330;7.914;2022-09-23T14:04:27;100514.25;;;25.25;30.34
64644;BME280;51056;50.330;7.914;2022-09-23T14:07:31;100506.84;;;26.04;27.64
64644;BME280;51056;50.330;7.914;2022-09-23T14:10:34;100499.03;;;26.47;27.90
64644;BME280;51056;50.330;7.914;2022-09-23T14:13:40;100503.00;;;23.61;30.96
64644;BME280;51056;50.330;7.914;2022-09-23T14:16:46;100502.72;;;22.71;32.08
64644;BME280;51056;50.330;7.914;2022-09-23T14:19:52;100512.47;;;22.10;35.14
64644;BME280;51056;50.330;7.914;2022-09-23T14:27:13;100497.53;;;21.10;37.38
64644;BME280;51056;50.330;7.914;2022-09-23T14:30:22;100494.84;;;20.92;39.47
64644;BME280;51056;50.330;7.914;2022-09-23T14:33:37;100496.16;;;20.31;35.45
64644;BME280;51056;50.330;7.914;2022-09-23T14:36:42;100496.47;;;20.18;40.86
64644;BME280;51056;50.330;7.914;2022-09-23T14:40:07;100492.50;;;20.32;41.31
64644;BME280;51056;50.330;7.914;2022-09-23T14:43:16;100493.38;;;20.33;37.97
64644;BME280;51056;50.330;7.914;2022-09-23T14:46:25;100494.03;;;20.44;38.80
64644;BME280;51056;50.330;7.914;2022-09-23T14:49:29;100487.06;;;20.34;38.71
64644;BME280;51056;50.330;7.914;2022-09-23T14:52:33;100488.94;;;20.24;40.27
64644;BME280;51056;50.330;7.914;2022-09-23T14:55:37;100481.56;;;19.98;39.57
64644;BME280;51056;50.330;7.914;2022-09-23T15:01:51;100474.16;;;19.34;42.46
64644;BME280;51056;50.330;7.914;2022-09-23T15:05:05;100472.59;;;19.21;43.33
64644;BME280;51056;50.330;7.914;2022-09-23T15:08:13;100470.75;;;19.12;46.33
64644;BME280;51056;50.330;7.914;2022-09-23T15:11:20;100472.03;;;19.08;46.19
64644;BME280;51056;50.330;7.914;2022-09-23T15:14:25;100467.38;;;19.00;46.91
64644;BME280;51056;50.330;7.914;2022-09-23T15:17:33;100476.59;;;18.96;47.42
64644;BME280;51056;50.330;7.914;2022-09-23T15:20:38;100474.50;;;18.69;48.36
64644;BME280;51056;50.330;7.914;2022-09-23T15:23:46;100471.63;;;18.72;50.29
64644;BME280;51056;50.330;7.914;2022-09-23T15:26:49;100459.13;;;18.63;52.57
64644;BME280;51056;50.330;7.914;2022-09-23T15:29:53;100455.50;;;18.54;52.47
64644;BME280;51056;50.330;7.914;2022-09-23T15:32:58;100451.97;;;18.44;53.35
64644;BME280;51056;50.330;7.914;2022-09-23T15:36:02;100456.00;;;18.39;54.67
64644;BME280;51056;50.330;7.914;2022-09-23T15:39:05;100450.06;;;18.25;55.81
64644;BME280;51056;50.330;7.914;2022-09-23T15:42:10;100459.06;;;18.13;58.25
64644;BME280;51056;50.330;7.914;2022-09-23T15:45:13;100455.59;;;18.12;58.00
64644;BME280;51056;50.330;7.914;2022-09-23T15:48:19;100464.97;;;18.05;57.43
64644;BME280;51056;50.330;7.914;2022-09-23T15:51:35;100463.25;;;17.95;57.29
64644;BME280;51056;50.330;7.914;2022-09-23T15:54:40;100471.78;;;17.77;58.38
64644;BME280;51056;50.330;7.914;2022-09-23T15:57:45;100470.16;;;17.54;58.48
64644;BME280;51056;50.330;7.914;2022-09-23T16:00:48;100474.75;;;17.40;57.90
64644;BME280;51056;50.330;7.914;2022-09-23T16:03:54;100470.19;;;17.42;58.88
64644;BME280;51056;50.330;7.914;2022-09-23T16:06:59;100469.97;;;17.34;60.38
64644;BME280;51056;50.330;7.914;2022-09-23T16:10:03;100474.09;;;17.27;60.30
64644;BME280;51056;50.330;7.914;2022-09-23T16:13:11;100474.91;;;17.28;59.28
64644;BME280;51056;50.330;7.914;2022-09-23T16:16:15;100474.09;;;17.27;60.09
64644;BME280;51056;50.330;7.914;2022-09-23T16:19:19;100471.81;;;17.23;60.81
64644;BME280;51056;50.330;7.914;2022-09-23T16:22:22;100481.78;;;17.19;61.32
64644;BME280;51056;50.330;7.914;2022-09-23T16:25:26;100473.56;;;17.01;61.61
64644;BME280;51056;50.330;7.914;2022-09-23T16:28:31;100483.78;;;16.83;62.90
64644;BME280;51056;50.330;7.914;2022-09-23T16:31:34;100471.78;;;16.79;65.80
64644;BME280;51056;50.330;7.914;2022-09-23T16:34:38;100477.06;;;16.79;65.36
64644;BME280;51056;50.330;7.914;2022-09-23T16:37:42;100477.28;;;16.76;65.08
64644;BME280;51056;50.330;7.914;2022-09-23T16:40:49;100475.34;;;16.67;64.95
64644;BME280;51056;50.330;7.914;2022-09-23T16:43:53;100484.22;;;16.43;65.39
64644;BME280;51056;50.330;7.914;2022-09-23T16:46:56;100479.53;;;16.36;67.12
64644;BME280;51056;50.330;7.914;2022-09-23T16:50:00;100484.47;;;16.40;66.55
64644;BME280;51056;50.330;7.914;2022-09-23T16:53:04;100485.03;;;16.21;65.91
64644;BME280;51056;50.330;7.914;2022-09-23T16:56:08;100481.25;;;16.01;65.23
64644;BME280;51056;50.330;7.914;2022-09-23T16:59:17;100478.38;;;16.04;68.10
64644;BME280;51056;50.330;7.914;2022-09-23T17:02:20;100489.88;;;15.92;69.45
64644;BME280;51056;50.330;7.914;2022-09-23T17:05:42;100481.03;;;16.04;68.83
64644;BME280;51056;50.330;7.914;2022-09-23T17:08:47;100489.41;;;15.98;68.97
64644;BME280;51056;50.330;7.914;2022-09-23T17:15:16;100487.81;;;15.85;70.64
64644;BME280;51056;50.330;7.914;2022-09-23T17:18:20;100493.56;;;15.66;71.33
64644;BME280;51056;50.330;7.914;2022-09-23T17:21:24;100492.13;;;15.62;71.27
64644;BME280;51056;50.330;7.914;2022-09-23T17:24:28;100487.97;;;15.46;71.20
64644;BME280;51056;50.330;7.914;2022-09-23T17:27:31;100485.34;;;15.46;70.97
64644;BME280;51056;50.330;7.914;2022-09-23T17:30:35;100482.22;;;15.41;70.60
64644;BME280;51056;50.330;7.914;2022-09-23T17:33:38;100473.19;;;15.32;70.77
64644;BME280;51056;50.330;7.914;2022-09-23T17:36:44;100478.50;;;15.20;72.15
64644;BME280;51056;50.330;7.914;2022-09-23T17:39:48;100480.00;;;15.11;72.36
64644;BME280;51056;50.330;7.914;2022-09-23T17:42:52;100468.69;;;15.22;71.54
64644;BME280;51056;50.330;7.914;2022-09-23T17:46:01;100469.88;;;15.18;71.81
64644;BME280;51056;50.330;7.914;2022-09-23T17:49:07;100473.34;;;15.18;71.67
64644;BME280;51056;50.330;7.914;2022-09-23T17:52:13;100482.88;;;14.95;72.15
64644;BME280;51056;50.330;7.914;2022-09-23T17:55:18;100484.34;;;14.99;72.03
64644;BME280;51056;50.330;7.914;2022-09-23T17:58:26;100487.44;;;14.80;72.84
64644;BME280;51056;50.330;7.914;2022-09-23T18:01:30;100484.19;;;14.77;72.83
64644;BME280;51056;50.330;7.914;2022-09-23T18:04:35;100485.97;;;14.76;72.53
64644;BME280;51056;50.330;7.914;2022-09-23T18:07:38;100478.28;;;14.73;72.48
64644;BME280;51056;50.330;7.914;2022-09-23T18:10:43;100491.78;;;14.69;72.77
64644;BME280;51056;50.330;7.914;2022-09-23T18:13:57;100487.47;;;14.68;73.26
64644;BME280;51056;50.330;7.914;2022-09-23T18:17:01;100483.56;;;14.60;74.03
64644;BME280;51056;50.330;7.914;2022-09-23T18:20:07;100487.97;;;14.47;74.54
64644;BME280;51056;50.330;7.914;2022-09-23T18:23:11;100494.22;;;14.59;73.94
64644;BME280;51056;50.330;7.914;2022-09-23T18:26:18;100492.50;;;14.45;74.14
64644;BME280;51056;50.330;7.914;2022-09-23T18:29:21;100500.19;;;14.48;73.84
64644;BME280;51056;50.330;7.914;2022-09-23T18:32:26;100499.88;;;14.40;74.74
64644;BME280;51056;50.330;7.914;2022-09-23T18:35:30;100510.50;;;14.26;75.21
64644;BME280;51056;50.330;7.914;2022-09-23T18:38:34;100507.13;;;14.24;75.10
64644;BME280;51056;50.330;7.914;2022-09-23T18:41:40;100500.72;;;14.28;75.17
64644;BME280;51056;50.330;7.914;2022-09-23T18:44:44;100501.47;;;14.30;75.17
64644;BME280;51056;50.330;7.914;2022-09-23T18:47:47;100495.25;;;14.31;75.09
64644;BME280;51056;50.330;7.914;2022-09-23T18:51:09;100495.78;;;14.23;75.52
64644;BME280;51056;50.330;7.914;2022-09-23T18:54:13;100496.19;;;14.17;75.70
64644;BME280;51056;50.330;7.914;2022-09-23T18:57:18;100498.16;;;14.13;75.96
64644;BME280;51056;50.330;7.914;2022-09-23T19:00:21;100488.78;;;13.96;76.72
64644;BME280;51056;50.330;7.914;2022-09-23T19:03:26;100494.16;;;13.95;76.86